Flight Track Log - Related Links

Times and Time Zones

All times are in EST time to prevent confusion due to time zone crossing. See the WIG7407 flight status page for this flight to view local times or setup timezone preferences in your user account.

Time Position Orientation Groundspeed Altitude Reporting Facility
EST Latitude Longitude Course Direction KTS MPH feet Rate Location/Type
Tue 07:54:20 PM 44.5206 -73.4800 187° South 121 139 4,600  Level Boston Center
Tue 07:55:24 PM 44.4767 -73.4867 186° South 132 152 5,500 774 Climbing Boston Center
Tue 07:56:24 PM 44.4403 -73.4919 186° South 135 155 6,200 694 Climbing Boston Center
Tue 07:57:25 PM 44.4019 -73.4997 188° South 141 162 6,900 793 Climbing Boston Center
Tue 07:58:00 PM 44.4413 -73.5060 189° South  Level Estimated
Tue 07:58:25 PM 44.3611 -73.5081 188° South 138 159 7,800  Level Boston Center
Tue 07:59:00 PM 44.4064 -73.5121 187° South  Level FlightAware Approximate
Tue 07:59:28 PM 44.3214 -73.5156 188° South 147 169 8,000  Level Boston Center
Tue 08:00:27 PM 44.2739 -73.5261 189° South 159 183 7,900  Descending Boston Center
Tue 08:01:30 PM 44.2322 -73.5325 186° South 153 176 8,000  Climbing Boston Center
Tue 08:02:31 PM 44.1903 -73.5406 188° South 154 177 7,900  Descending Boston Center
Tue 08:03:32 PM 44.1447 -73.5497 188° South 154 177 8,000  Climbing Boston Center
Tue 08:04:32 PM 44.1022 -73.5578 188° South 156 180 7,900  Descending Boston Center
Tue 08:05:32 PM 44.0614 -73.5658 188° South 149 171 8,000 49 Climbing Boston Center
Tue 08:06:34 PM 44.0164 -73.5742 188° South 154 177 8,000 -49 Level Boston Center
Tue 08:07:35 PM 43.9744 -73.5833 189° South 154 177 7,900  Descending Boston Center
Tue 08:08:37 PM 43.9342 -73.5903 187° South 147 169 8,000 48 Climbing Boston Center
Tue 08:09:39 PM 43.8889 -73.5981 187° South 150 173 8,000  Level Boston Center
Tue 08:10:40 PM 43.8467 -73.6058 188° South 154 177 8,000  Level Boston Center
Tue 08:11:41 PM 43.8047 -73.6139 188° South 155 178 8,000  Level Boston Center
Tue 08:12:41 PM 43.7603 -73.6214 187° South 149 171 8,000  Level Boston Center
Tue 08:13:42 PM 43.7192 -73.6286 187° South 151 174 8,000  Level Boston Center
Tue 08:14:43 PM 43.6783 -73.6347 186° South 148 170 8,000 63 Level Boston Center
Tue 08:15:17 PM 43.6525 -73.6392 187° South 147 169 8,100  Climbing Boston Center
Tue 08:15:44 PM 43.6419 -73.6394 181° South 147 169 8,000  Descending Boston Center
Tue 08:15:59 PM 43.6239 -73.6442 191° South 146 168 8,100 79 Climbing Boston Center
Tue 08:17:00 PM 43.5839 -73.6514 187° South 148 170 8,100 -113 Level Boston Center
Tue 08:17:45 PM 43.5517 -73.6578 188° South 150 173 7,900 -98 Descending Boston Center
Tue 08:18:01 PM 43.5436 -73.6611 197° South 150 173 8,000 97 Climbing Boston Center
Tue 08:18:47 PM 43.5106 -73.6658 186° South 151 174 8,000 103 Level Boston Center
Tue 08:18:59 PM 43.5017 -73.6675 188° South 150 173 8,100  Climbing Boston Center
Tue 08:19:49 PM 43.4697 -73.6717 185° South 149 171 8,000  Descending Boston Center
Tue 08:20:01 PM 43.4597 -73.6739 189° South 149 171 8,100  Climbing Boston Center
Tue 08:20:50 PM 43.4275 -73.6803 188° South 152 175 8,000  Descending Boston Center
Tue 08:21:03 PM 43.4158 -73.6797 178° South 151 174 8,100  Climbing Boston Center
Tue 08:21:51 PM 43.3844 -73.6878 191° South 152 175 8,000  Descending Boston Center
Tue 08:22:03 PM 43.3733 -73.6889 184° South 152 175 8,100 -300 Climbing Boston Center
Tue 08:22:51 PM 43.3378 -73.6967 189° South 157 181 7,700 -400 Descending Boston Center
Tue 08:23:03 PM 43.3308 -73.6981 188° South 157 181 7,700 -411 Level Boston Center
Tue 08:24:04 PM 43.2839 -73.7083 189° South 173 199 7,200 -589 Descending Boston Center
Tue 08:24:55 PM 43.2461 -73.7222 195° South 169 194 6,600 -600 Descending Boston Center
Tue 08:25:04 PM 43.2378 -73.7253 195° South 168 193 6,600 -492 Level Boston Center
Tue 08:25:56 PM 43.2017 -73.7347 191° South 164 189 6,100 -590 Descending Boston Center
Tue 08:26:05 PM 43.1950 -73.7369 194° South 164 189 6,000 -500 Descending Boston Center
Tue 08:26:56 PM 43.1519 -73.7478 190° South 170 196 5,600 -333 Descending Boston Center
Tue 08:26:59 PM 43.1519 -73.7489 270° West 168 193 5,700 -375 Climbing Boston Center
Tue 08:28:00 PM 43.1069 -73.7600 190° South 168 193 5,200 -504 Descending Boston Center
Tue 08:28:58 PM 43.0608 -73.7736 192° South 167 192 4,700 -492 Descending Boston Center
Tue 08:29:01 PM 43.0617 -73.7739 346° North 167 192 4,700 -476 Level Boston Center
Tue 08:30:01 PM 43.0178 -73.7861 192° South 161 185 4,200 -555 Descending Boston Center
Tue 08:31:00 PM 42.9717 -73.7986 191° South 158 182 3,600 -450 Descending Boston Center
Tue 08:32:01 PM 42.9303 -73.8111 192° South 153 176 3,300 -341 Descending Boston Center
Tue 08:33:03 PM 42.8883 -73.8108 180° South 151 174 2,900 -590 Descending Boston Center
Tue 08:34:03 PM 42.8442 -73.8086 178° South 157 181 2,100 -900 Descending Boston Center
Tue 08:35:03 PM 42.7997 -73.8078 179° South 156 180 1,100 -952 Descending Boston Center
Tue 08:35:06 PM 42.7983 -73.8069 156° South 155 178 1,100 -563 Level Boston Center
Tue 08:36:07 PM 42.7667 -73.8061 179° South 110 127 500 -397 Descending Boston Center
Tue 08:37:07 PM 42.7561 -73.8050 176° South 41 47 300 -200 Descending Boston Center
Tue 08:39:00 PM 42.7491 -73.8020 190° South  Level Estimated
Tue 08:46:00 PM 42.7491 -73.8020 190° South  Level Estimated

Login

Don't have an account? Register now (free) for customized features, flight alerts, and more!